sensor_id;sensor_type;location;lat;lon;timestamp;temperature;humidity
71837;DHT22;59686;51.716;7.016;2023-05-09T00:02:10;19.80;83.40
71837;DHT22;59686;51.716;7.016;2023-05-09T00:04:36;19.80;83.40
71837;DHT22;59686;51.716;7.016;2023-05-09T00:07:02;19.70;83.50
71837;DHT22;59686;51.716;7.016;2023-05-09T00:09:28;19.70;83.40
71837;DHT22;59686;51.716;7.016;2023-05-09T00:11:53;19.70;83.40
71837;DHT22;59686;51.716;7.016;2023-05-09T00:14:19;19.80;83.50
71837;DHT22;59686;51.716;7.016;2023-05-09T00:16:50;19.70;83.50
71837;DHT22;59686;51.716;7.016;2023-05-09T00:19:15;19.70;83.40
71837;DHT22;59686;51.716;7.016;2023-05-09T00:21:41;19.70;83.50
71837;DHT22;59686;51.716;7.016;2023-05-09T00:24:07;19.70;83.40
71837;DHT22;59686;51.716;7.016;2023-05-09T00:26:32;19.70;83.50
71837;DHT22;59686;51.716;7.016;2023-05-09T00:28:58;19.70;83.40
71837;DHT22;59686;51.716;7.016;2023-05-09T00:31:31;19.70;83.50
71837;DHT22;59686;51.716;7.016;2023-05-09T00:33:57;19.60;83.40
71837;DHT22;59686;51.716;7.016;2023-05-09T00:36:22;19.60;83.40
71837;DHT22;59686;51.716;7.016;2023-05-09T00:38:48;19.70;83.50
71837;DHT22;59686;51.716;7.016;2023-05-09T00:41:14;19.60;83.40
71837;DHT22;59686;51.716;7.016;2023-05-09T00:43:39;19.70;83.40
71837;DHT22;59686;51.716;7.016;2023-05-09T00:46:05;19.60;83.40
71837;DHT22;59686;51.716;7.016;2023-05-09T00:48:40;19.60;83.30
71837;DHT22;59686;51.716;7.016;2023-05-09T00:51:06;19.60;83.30
71837;DHT22;59686;51.716;7.016;2023-05-09T00:53:32;19.60;83.60
71837;DHT22;59686;51.716;7.016;2023-05-09T00:55:59;19.60;83.30
71837;DHT22;59686;51.716;7.016;2023-05-09T00:58:25;19.60;83.20
71837;DHT22;59686;51.716;7.016;2023-05-09T01:00:50;19.60;84.00
71837;DHT22;59686;51.716;7.016;2023-05-09T02:04:02;19.30;82.80
71837;DHT22;59686;51.716;7.016;2023-05-09T02:06:30;19.30;82.90
71837;DHT22;59686;51.716;7.016;2023-05-09T02:08:57;19.30;82.90
71837;DHT22;59686;51.716;7.016;2023-05-09T02:11:23;19.30;82.80
71837;DHT22;59686;51.716;7.016;2023-05-09T02:13:49;19.30;82.90
71837;DHT22;59686;51.716;7.016;2023-05-09T02:16:15;19.30;82.80
71837;DHT22;59686;51.716;7.016;2023-05-09T02:18:41;19.30;82.80
71837;DHT22;59686;51.716;7.016;2023-05-09T02:21:07;19.20;82.80
71837;DHT22;59686;51.716;7.016;2023-05-09T02:23:33;19.20;82.70
71837;DHT22;59686;51.716;7.016;2023-05-09T02:25:59;19.30;82.80
71837;DHT22;59686;51.716;7.016;2023-05-09T02:28:26;19.30;82.90
71837;DHT22;59686;51.716;7.016;2023-05-09T02:30:53;19.30;82.80
71837;DHT22;59686;51.716;7.016;2023-05-09T02:33:23;19.30;82.80
71837;DHT22;59686;51.716;7.016;2023-05-09T02:35:50;19.30;82.80
71837;DHT22;59686;51.716;7.016;2023-05-09T02:38:17;19.30;82.80
71837;DHT22;59686;51.716;7.016;2023-05-09T02:40:46;19.20;82.70
71837;DHT22;59686;51.716;7.016;2023-05-09T02:43:12;19.20;83.00
71837;DHT22;59686;51.716;7.016;2023-05-09T02:45:39;19.10;82.60
71837;DHT22;59686;51.716;7.016;2023-05-09T02:48:05;19.20;82.70
71837;DHT22;59686;51.716;7.016;2023-05-09T02:50:34;19.20;82.70
71837;DHT22;59686;51.716;7.016;2023-05-09T02:53:02;19.20;82.70
71837;DHT22;59686;51.716;7.016;2023-05-09T02:55:28;19.20;82.70
71837;DHT22;59686;51.716;7.016;2023-05-09T02:57:54;19.20;82.70
71837;DHT22;59686;51.716;7.016;2023-05-09T03:00:20;19.20;82.60
71837;DHT22;59686;51.716;7.016;2023-05-09T03:02:46;19.10;82.60
71837;DHT22;59686;51.716;7.016;2023-05-09T03:05:13;19.20;82.70
71837;DHT22;59686;51.716;7.016;2023-05-09T03:07:38;19.20;82.60
71837;DHT22;59686;51.716;7.016;2023-05-09T03:10:04;19.20;82.60
71837;DHT22;59686;51.716;7.016;2023-05-09T03:12:30;19.20;82.70
71837;DHT22;59686;51.716;7.016;2023-05-09T03:14:56;19.10;82.70
71837;DHT22;59686;51.716;7.016;2023-05-09T03:17:21;19.10;82.70
71837;DHT22;59686;51.716;7.016;2023-05-09T03:19:47;19.10;82.70
71837;DHT22;59686;51.716;7.016;2023-05-09T03:22:14;19.10;82.70
71837;DHT22;59686;51.716;7.016;2023-05-09T03:24:40;19.10;82.70
71837;DHT22;59686;51.716;7.016;2023-05-09T03:27:05;19.20;82.70
71837;DHT22;59686;51.716;7.016;2023-05-09T03:29:31;19.10;82.70
71837;DHT22;59686;51.716;7.016;2023-05-09T03:31:57;19.10;82.80
71837;DHT22;59686;51.716;7.016;2023-05-09T03:34:23;19.10;82.80
71837;DHT22;59686;51.716;7.016;2023-05-09T03:36:49;19.10;82.80
71837;DHT22;59686;51.716;7.016;2023-05-09T03:39:14;19.00;82.70
71837;DHT22;59686;51.716;7.016;2023-05-09T03:41:40;19.10;82.80
71837;DHT22;59686;51.716;7.016;2023-05-09T03:44:08;19.10;82.80
71837;DHT22;59686;51.716;7.016;2023-05-09T03:46:33;19.10;82.80
71837;DHT22;59686;51.716;7.016;2023-05-09T03:48:59;19.00;82.70
71837;DHT22;59686;51.716;7.016;2023-05-09T03:51:24;19.00;82.70
71837;DHT22;59686;51.716;7.016;2023-05-09T03:53:51;19.00;82.70
71837;DHT22;59686;51.716;7.016;2023-05-09T03:56:16;19.00;82.70
71837;DHT22;59686;51.716;7.016;2023-05-09T03:58:42;19.10;82.80
71837;DHT22;59686;51.716;7.016;2023-05-09T04:01:08;19.00;82.70
71837;DHT22;59686;51.716;7.016;2023-05-09T04:03:34;19.00;82.70
71837;DHT22;59686;51.716;7.016;2023-05-09T04:06:00;19.00;82.70
71837;DHT22;59686;51.716;7.016;2023-05-09T04:08:26;19.00;82.70
71837;DHT22;59686;51.716;7.016;2023-05-09T04:10:52;19.00;82.80
71837;DHT22;59686;51.716;7.016;2023-05-09T04:13:18;18.90;82.70
71837;DHT22;59686;51.716;7.016;2023-05-09T04:15:44;18.90;82.70
71837;DHT22;59686;51.716;7.016;2023-05-09T04:18:10;18.90;82.80
71837;DHT22;59686;51.716;7.016;2023-05-09T04:20:36;18.90;82.80
71837;DHT22;59686;51.716;7.016;2023-05-09T04:23:01;18.90;82.80
71837;DHT22;59686;51.716;7.016;2023-05-09T04:25:32;18.90;83.10
71837;DHT22;59686;51.716;7.016;2023-05-09T04:27:59;18.90;82.80
71837;DHT22;59686;51.716;7.016;2023-05-09T04:30:24;19.00;82.90
71837;DHT22;59686;51.716;7.016;2023-05-09T04:32:53;18.90;82.80
71837;DHT22;59686;51.716;7.016;2023-05-09T04:35:19;18.90;82.90
71837;DHT22;59686;51.716;7.016;2023-05-09T04:37:46;18.90;82.90
71837;DHT22;59686;51.716;7.016;2023-05-09T04:40:13;18.90;82.90
71837;DHT22;59686;51.716;7.016;2023-05-09T04:42:39;18.90;82.90
71837;DHT22;59686;51.716;7.016;2023-05-09T04:45:06;18.90;82.90
71837;DHT22;59686;51.716;7.016;2023-05-09T04:47:31;18.90;83.00
71837;DHT22;59686;51.716;7.016;2023-05-09T04:49:57;18.90;83.00
71837;DHT22;59686;51.716;7.016;2023-05-09T04:52:23;18.90;83.00
71837;DHT22;59686;51.716;7.016;2023-05-09T04:54:48;18.90;83.00
71837;DHT22;59686;51.716;7.016;2023-05-09T04:57:14;18.90;83.00
71837;DHT22;59686;51.716;7.016;2023-05-09T04:59:40;18.90;83.10
71837;DHT22;59686;51.716;7.016;2023-05-09T05:02:05;18.90;83.10
71837;DHT22;59686;51.716;7.016;2023-05-09T05:04:31;19.00;83.20
71837;DHT22;59686;51.716;7.016;2023-05-09T05:06:57;18.80;83.10
71837;DHT22;59686;51.716;7.016;2023-05-09T05:09:23;18.90;83.30
71837;DHT22;59686;51.716;7.016;2023-05-09T05:11:49;18.80;83.20
71837;DHT22;59686;51.716;7.016;2023-05-09T05:14:25;18.80;83.20
71837;DHT22;59686;51.716;7.016;2023-05-09T05:16:50;18.80;83.20
71837;DHT22;59686;51.716;7.016;2023-05-09T05:19:16;18.80;83.20
71837;DHT22;59686;51.716;7.016;2023-05-09T05:21:42;18.80;83.30
71837;DHT22;59686;51.716;7.016;2023-05-09T05:24:07;18.90;83.40
71837;DHT22;59686;51.716;7.016;2023-05-09T05:26:33;18.80;83.30
71837;DHT22;59686;51.716;7.016;2023-05-09T05:28:58;18.70;83.30
71837;DHT22;59686;51.716;7.016;2023-05-09T05:31:25;18.80;83.40
71837;DHT22;59686;51.716;7.016;2023-05-09T05:33:50;18.80;83.40
71837;DHT22;59686;51.716;7.016;2023-05-09T05:36:16;18.80;83.40
71837;DHT22;59686;51.716;7.016;2023-05-09T05:38:43;18.70;83.40
71837;DHT22;59686;51.716;7.016;2023-05-09T05:41:09;18.80;83.50
71837;DHT22;59686;51.716;7.016;2023-05-09T05:43:36;18.80;83.50
71837;DHT22;59686;51.716;7.016;2023-05-09T05:46:02;18.70;83.40
71837;DHT22;59686;51.716;7.016;2023-05-09T05:48:27;18.80;83.50
71837;DHT22;59686;51.716;7.016;2023-05-09T05:50:53;18.70;83.50
71837;DHT22;59686;51.716;7.016;2023-05-09T05:53:19;18.80;83.60
71837;DHT22;59686;51.716;7.016;2023-05-09T05:55:44;18.70;83.50
71837;DHT22;59686;51.716;7.016;2023-05-09T05:58:11;18.70;83.50
71837;DHT22;59686;51.716;7.016;2023-05-09T06:00:38;18.70;83.50
71837;DHT22;59686;51.716;7.016;2023-05-09T06:03:04;18.70;83.50
71837;DHT22;59686;51.716;7.016;2023-05-09T06:05:29;18.70;83.60
71837;DHT22;59686;51.716;7.016;2023-05-09T06:07:55;18.70;83.60
71837;DHT22;59686;51.716;7.016;2023-05-09T06:10:21;18.70;83.60
71837;DHT22;59686;51.716;7.016;2023-05-09T06:12:47;18.70;83.60
71837;DHT22;59686;51.716;7.016;2023-05-09T06:15:13;18.70;83.60
71837;DHT22;59686;51.716;7.016;2023-05-09T06:17:39;18.70;83.60
71837;DHT22;59686;51.716;7.016;2023-05-09T06:20:06;18.70;83.60
71837;DHT22;59686;51.716;7.016;2023-05-09T06:22:31;18.70;83.70
71837;DHT22;59686;51.716;7.016;2023-05-09T06:24:57;18.70;83.70
71837;DHT22;59686;51.716;7.016;2023-05-09T06:27:23;18.70;83.70
71837;DHT22;59686;51.716;7.016;2023-05-09T06:29:48;18.70;84.40
71837;DHT22;59686;51.716;7.016;2023-05-09T06:32:14;18.80;83.90
71837;DHT22;59686;51.716;7.016;2023-05-09T06:34:40;18.70;83.90
71837;DHT22;59686;51.716;7.016;2023-05-09T06:37:06;18.70;83.90
71837;DHT22;59686;51.716;7.016;2023-05-09T06:39:34;18.70;84.70
71837;DHT22;59686;51.716;7.016;2023-05-09T06:41:59;18.70;84.00
71837;DHT22;59686;51.716;7.016;2023-05-09T06:44:25;18.70;84.00
71837;DHT22;59686;51.716;7.016;2023-05-09T06:46:51;18.70;84.00
71837;DHT22;59686;51.716;7.016;2023-05-09T06:49:16;18.70;84.00
71837;DHT22;59686;51.716;7.016;2023-05-09T06:51:42;18.70;84.10
71837;DHT22;59686;51.716;7.016;2023-05-09T06:54:08;18.60;84.00
71837;DHT22;59686;51.716;7.016;2023-05-09T06:56:33;18.70;84.00
71837;DHT22;59686;51.716;7.016;2023-05-09T06:58:59;18.60;84.00
71837;DHT22;59686;51.716;7.016;2023-05-09T07:01:25;18.80;84.10
71837;DHT22;59686;51.716;7.016;2023-05-09T07:03:50;18.70;84.00
71837;DHT22;59686;51.716;7.016;2023-05-09T07:06:16;18.70;84.00
71837;DHT22;59686;51.716;7.016;2023-05-09T07:08:41;18.70;84.10
71837;DHT22;59686;51.716;7.016;2023-05-09T07:11:07;18.70;84.90
71837;DHT22;59686;51.716;7.016;2023-05-09T07:13:39;18.80;84.30
71837;DHT22;59686;51.716;7.016;2023-05-09T07:16:05;18.70;84.30
71837;DHT22;59686;51.716;7.016;2023-05-09T07:18:30;18.70;84.30
71837;DHT22;59686;51.716;7.016;2023-05-09T07:20:56;18.70;84.30
71837;DHT22;59686;51.716;7.016;2023-05-09T07:23:22;18.70;84.20
71837;DHT22;59686;51.716;7.016;2023-05-09T07:25:47;18.70;84.30
71837;DHT22;59686;51.716;7.016;2023-05-09T07:28:13;18.70;84.30
71837;DHT22;59686;51.716;7.016;2023-05-09T07:30:39;18.70;84.40
71837;DHT22;59686;51.716;7.016;2023-05-09T07:33:05;18.70;84.40
71837;DHT22;59686;51.716;7.016;2023-05-09T07:35:31;18.70;84.40
71837;DHT22;59686;51.716;7.016;2023-05-09T07:38:11;18.70;84.40
71837;DHT22;59686;51.716;7.016;2023-05-09T07:40:37;18.70;84.50
71837;DHT22;59686;51.716;7.016;2023-05-09T07:43:03;18.70;84.50
71837;DHT22;59686;51.716;7.016;2023-05-09T07:45:29;18.70;84.40
71837;DHT22;59686;51.716;7.016;2023-05-09T07:47:55;18.80;84.40
71837;DHT22;59686;51.716;7.016;2023-05-09T07:50:20;18.70;84.30
71837;DHT22;59686;51.716;7.016;2023-05-09T07:52:48;18.80;84.20
71837;DHT22;59686;51.716;7.016;2023-05-09T07:55:14;18.80;84.30
71837;DHT22;59686;51.716;7.016;2023-05-09T07:57:39;18.80;84.30
71837;DHT22;59686;51.716;7.016;2023-05-09T08:00:06;18.80;84.20
71837;DHT22;59686;51.716;7.016;2023-05-09T08:02:33;18.90;84.20
71837;DHT22;59686;51.716;7.016;2023-05-09T08:04:58;18.80;84.10
71837;DHT22;59686;51.716;7.016;2023-05-09T08:07:24;18.80;84.10
71837;DHT22;59686;51.716;7.016;2023-05-09T08:09:50;18.80;84.00
71837;DHT22;59686;51.716;7.016;2023-05-09T08:12:16;18.90;84.10
71837;DHT22;59686;51.716;7.016;2023-05-09T08:14:41;18.80;84.00
71837;DHT22;59686;51.716;7.016;2023-05-09T08:17:07;18.90;84.10
71837;DHT22;59686;51.716;7.016;2023-05-09T08:19:32;18.90;84.70
71837;DHT22;59686;51.716;7.016;2023-05-09T08:21:58;18.90;84.00
71837;DHT22;59686;51.716;7.016;2023-05-09T08:24:25;18.90;84.00
71837;DHT22;59686;51.716;7.016;2023-05-09T08:26:50;18.90;84.00
71837;DHT22;59686;51.716;7.016;2023-05-09T08:29:20;18.90;84.10
71837;DHT22;59686;51.716;7.016;2023-05-09T08:31:46;18.90;84.00
71837;DHT22;59686;51.716;7.016;2023-05-09T08:34:11;18.90;84.00
71837;DHT22;59686;51.716;7.016;2023-05-09T08:36:37;18.90;84.00
71837;DHT22;59686;51.716;7.016;2023-05-09T08:39:03;18.90;84.00
71837;DHT22;59686;51.716;7.016;2023-05-09T08:41:32;18.90;84.00
71837;DHT22;59686;51.716;7.016;2023-05-09T08:44:00;18.90;84.00
71837;DHT22;59686;51.716;7.016;2023-05-09T08:46:46;18.90;84.00
71837;DHT22;59686;51.716;7.016;2023-05-09T08:49:13;18.90;84.10
71837;DHT22;59686;51.716;7.016;2023-05-09T08:51:40;18.90;84.00
71837;DHT22;59686;51.716;7.016;2023-05-09T08:54:06;18.90;83.90
71837;DHT22;59686;51.716;7.016;2023-05-09T08:56:33;18.90;83.90
71837;DHT22;59686;51.716;7.016;2023-05-09T08:58:59;18.90;83.90
71837;DHT22;59686;51.716;7.016;2023-05-09T09:01:26;18.90;83.90
71837;DHT22;59686;51.716;7.016;2023-05-09T09:03:52;18.90;83.90
71837;DHT22;59686;51.716;7.016;2023-05-09T09:06:19;18.90;83.90
71837;DHT22;59686;51.716;7.016;2023-05-09T09:08:45;18.90;83.80
71837;DHT22;59686;51.716;7.016;2023-05-09T09:11:13;18.90;83.80
71837;DHT22;59686;51.716;7.016;2023-05-09T09:13:40;19.00;83.70
71837;DHT22;59686;51.716;7.016;2023-05-09T09:16:17;19.00;83.60
71837;DHT22;59686;51.716;7.016;2023-05-09T09:18:45;19.00;83.60
71837;DHT22;59686;51.716;7.016;2023-05-09T09:21:14;19.00;83.60
71837;DHT22;59686;51.716;7.016;2023-05-09T09:23:42;19.00;83.50
71837;DHT22;59686;51.716;7.016;2023-05-09T09:26:09;19.10;83.50
71837;DHT22;59686;51.716;7.016;2023-05-09T09:28:34;19.00;83.40
71837;DHT22;59686;51.716;7.016;2023-05-09T09:31:00;19.00;83.40
71837;DHT22;59686;51.716;7.016;2023-05-09T09:33:27;18.90;83.20
71837;DHT22;59686;51.716;7.016;2023-05-09T09:35:55;19.00;83.10
71837;DHT22;59686;51.716;7.016;2023-05-09T09:38:22;19.00;82.90
71837;DHT22;59686;51.716;7.016;2023-05-09T09:43:16;19.10;82.80
71837;DHT22;59686;51.716;7.016;2023-05-09T09:45:42;19.10;82.80
71837;DHT22;59686;51.716;7.016;2023-05-09T09:48:08;19.10;82.80
71837;DHT22;59686;51.716;7.016;2023-05-09T09:50:33;19.10;82.70
71837;DHT22;59686;51.716;7.016;2023-05-09T09:52:59;19.10;82.60
71837;DHT22;59686;51.716;7.016;2023-05-09T09:55:25;19.10;82.60
71837;DHT22;59686;51.716;7.016;2023-05-09T09:57:51;19.10;82.60
71837;DHT22;59686;51.716;7.016;2023-05-09T10:00:26;19.00;82.50
71837;DHT22;59686;51.716;7.016;2023-05-09T10:02:57;19.00;82.50
71837;DHT22;59686;51.716;7.016;2023-05-09T10:05:29;19.00;82.50
71837;DHT22;59686;51.716;7.016;2023-05-09T10:08:01;19.00;82.40
71837;DHT22;59686;51.716;7.016;2023-05-09T10:10:32;19.00;82.30
71837;DHT22;59686;51.716;7.016;2023-05-09T10:13:01;19.00;82.20
71837;DHT22;59686;51.716;7.016;2023-05-09T10:15:29;19.10;82.30
71837;DHT22;59686;51.716;7.016;2023-05-09T10:17:57;19.10;82.20
71837;DHT22;59686;51.716;7.016;2023-05-09T10:20:24;19.10;82.90
71837;DHT22;59686;51.716;7.016;2023-05-09T10:22:54;19.10;81.90
71837;DHT22;59686;51.716;7.016;2023-05-09T10:25:24;19.20;81.90
71837;DHT22;59686;51.716;7.016;2023-05-09T10:27:53;19.20;81.80
71837;DHT22;59686;51.716;7.016;2023-05-09T10:30:29;19.20;81.70
71837;DHT22;59686;51.716;7.016;2023-05-09T10:33:09;19.20;81.70
71837;DHT22;59686;51.716;7.016;2023-05-09T10:35:40;19.20;81.60
71837;DHT22;59686;51.716;7.016;2023-05-09T10:38:08;19.20;81.70
71837;DHT22;59686;51.716;7.016;2023-05-09T10:40:41;19.30;81.60
71837;DHT22;59686;51.716;7.016;2023-05-09T10:43:08;19.30;81.50
71837;DHT22;59686;51.716;7.016;2023-05-09T10:45:36;19.30;81.60
71837;DHT22;59686;51.716;7.016;2023-05-09T10:48:05;19.30;81.50
71837;DHT22;59686;51.716;7.016;2023-05-09T10:50:33;19.30;81.30
71837;DHT22;59686;51.716;7.016;2023-05-09T10:55:56;19.30;81.20
71837;DHT22;59686;51.716;7.016;2023-05-09T10:58:30;19.40;81.20
71837;DHT22;59686;51.716;7.016;2023-05-09T11:01:02;19.40;80.90
71837;DHT22;59686;51.716;7.016;2023-05-09T11:03:54;19.40;80.70
71837;DHT22;59686;51.716;7.016;2023-05-09T11:06:43;19.40;80.10
71837;DHT22;59686;51.716;7.016;2023-05-09T11:09:33;19.50;80.10
71837;DHT22;59686;51.716;7.016;2023-05-09T11:14:46;19.50;80.30
71837;DHT22;59686;51.716;7.016;2023-05-09T11:22:21;19.50;80.00
71837;DHT22;59686;51.716;7.016;2023-05-09T11:24:50;19.50;80.00
71837;DHT22;59686;51.716;7.016;2023-05-09T11:27:22;19.50;80.00
71837;DHT22;59686;51.716;7.016;2023-05-09T11:30:04;19.50;78.60
71837;DHT22;59686;51.716;7.016;2023-05-09T11:32:39;19.50;78.70
71837;DHT22;59686;51.716;7.016;2023-05-09T11:35:16;19.60;79.20
71837;DHT22;59686;51.716;7.016;2023-05-09T11:37:49;19.50;78.10
71837;DHT22;59686;51.716;7.016;2023-05-09T11:40:17;19.60;78.50
71837;DHT22;59686;51.716;7.016;2023-05-09T11:42:47;19.40;78.70
71837;DHT22;59686;51.716;7.016;2023-05-09T11:45:14;19.50;78.80
71837;DHT22;59686;51.716;7.016;2023-05-09T11:47:41;19.50;78.90
71837;DHT22;59686;51.716;7.016;2023-05-09T11:50:09;19.60;78.90
71837;DHT22;59686;51.716;7.016;2023-05-09T11:52:35;19.60;78.80
71837;DHT22;59686;51.716;7.016;2023-05-09T11:55:04;19.60;78.80
71837;DHT22;59686;51.716;7.016;2023-05-09T11:57:30;19.60;78.80
71837;DHT22;59686;51.716;7.016;2023-05-09T11:59:56;19.60;78.90
71837;DHT22;59686;51.716;7.016;2023-05-09T12:02:24;19.60;79.30
71837;DHT22;59686;51.716;7.016;2023-05-09T12:04:50;19.60;78.60
71837;DHT22;59686;51.716;7.016;2023-05-09T12:07:16;19.70;78.60
71837;DHT22;59686;51.716;7.016;2023-05-09T12:09:43;19.60;78.40
71837;DHT22;59686;51.716;7.016;2023-05-09T12:12:10;19.70;78.30
71837;DHT22;59686;51.716;7.016;2023-05-09T12:14:37;19.70;78.10
71837;DHT22;59686;51.716;7.016;2023-05-09T12:17:07;19.70;77.90
71837;DHT22;59686;51.716;7.016;2023-05-09T12:19:33;19.70;77.80
71837;DHT22;59686;51.716;7.016;2023-05-09T12:22:01;19.80;78.00
71837;DHT22;59686;51.716;7.016;2023-05-09T12:24:27;19.80;77.70
71837;DHT22;59686;51.716;7.016;2023-05-09T12:26:55;19.80;77.70
71837;DHT22;59686;51.716;7.016;2023-05-09T12:29:21;19.80;77.50
71837;DHT22;59686;51.716;7.016;2023-05-09T12:31:48;19.80;77.60
71837;DHT22;59686;51.716;7.016;2023-05-09T12:34:14;19.80;77.70
71837;DHT22;59686;51.716;7.016;2023-05-09T12:36:43;19.80;77.60
71837;DHT22;59686;51.716;7.016;2023-05-09T12:39:16;19.80;77.50
71837;DHT22;59686;51.716;7.016;2023-05-09T12:41:49;19.80;77.40
71837;DHT22;59686;51.716;7.016;2023-05-09T12:44:20;19.90;77.70
71837;DHT22;59686;51.716;7.016;2023-05-09T12:47:13;19.90;77.70
71837;DHT22;59686;51.716;7.016;2023-05-09T12:49:38;19.90;77.60
71837;DHT22;59686;51.716;7.016;2023-05-09T12:52:04;19.90;77.60
71837;DHT22;59686;51.716;7.016;2023-05-09T12:54:30;19.90;77.70
71837;DHT22;59686;51.716;7.016;2023-05-09T12:56:57;19.90;77.50
71837;DHT22;59686;51.716;7.016;2023-05-09T12:59:26;19.80;77.30
71837;DHT22;59686;51.716;7.016;2023-05-09T13:01:56;20.00;77.40
71837;DHT22;59686;51.716;7.016;2023-05-09T13:04:24;20.00;77.30
71837;DHT22;59686;51.716;7.016;2023-05-09T13:06:55;20.00;77.30
71837;DHT22;59686;51.716;7.016;2023-05-09T13:09:23;20.00;77.40
71837;DHT22;59686;51.716;7.016;2023-05-09T13:11:50;20.00;77.20
71837;DHT22;59686;51.716;7.016;2023-05-09T13:14:16;20.00;77.30
71837;DHT22;59686;51.716;7.016;2023-05-09T13:16:43;20.00;77.10
71837;DHT22;59686;51.716;7.016;2023-05-09T13:19:10;20.00;77.30
71837;DHT22;59686;51.716;7.016;2023-05-09T13:21:35;20.00;77.10
71837;DHT22;59686;51.716;7.016;2023-05-09T13:24:02;20.00;76.90
71837;DHT22;59686;51.716;7.016;2023-05-09T13:26:28;20.00;76.90
71837;DHT22;59686;51.716;7.016;2023-05-09T13:28:54;20.00;76.80
71837;DHT22;59686;51.716;7.016;2023-05-09T13:31:20;20.00;76.80
71837;DHT22;59686;51.716;7.016;2023-05-09T13:33:50;20.10;77.00
71837;DHT22;59686;51.716;7.016;2023-05-09T13:36:15;20.10;77.00
71837;DHT22;59686;51.716;7.016;2023-05-09T13:38:41;20.00;76.60
71837;DHT22;59686;51.716;7.016;2023-05-09T13:41:10;20.00;76.70
71837;DHT22;59686;51.716;7.016;2023-05-09T13:43:38;20.10;76.90
71837;DHT22;59686;51.716;7.016;2023-05-09T13:46:08;20.00;77.00
71837;DHT22;59686;51.716;7.016;2023-05-09T13:48:34;20.00;77.30
71837;DHT22;59686;51.716;7.016;2023-05-09T13:51:00;19.90;77.30
71837;DHT22;59686;51.716;7.016;2023-05-09T13:53:25;19.90;77.10
71837;DHT22;59686;51.716;7.016;2023-05-09T13:55:51;19.80;77.20
71837;DHT22;59686;51.716;7.016;2023-05-09T13:58:17;19.90;77.80
71837;DHT22;59686;51.716;7.016;2023-05-09T14:00:43;19.80;78.20
71837;DHT22;59686;51.716;7.016;2023-05-09T14:03:09;19.80;78.60
71837;DHT22;59686;51.716;7.016;2023-05-09T14:05:37;19.70;78.60
71837;DHT22;59686;51.716;7.016;2023-05-09T14:08:03;19.80;78.80
71837;DHT22;59686;51.716;7.016;2023-05-09T14:10:29;19.70;79.00
71837;DHT22;59686;51.716;7.016;2023-05-09T14:12:55;19.70;79.20
71837;DHT22;59686;51.716;7.016;2023-05-09T14:15:21;19.80;79.20
71837;DHT22;59686;51.716;7.016;2023-05-09T14:17:47;19.80;79.50
71837;DHT22;59686;51.716;7.016;2023-05-09T14:20:12;19.80;79.80
71837;DHT22;59686;51.716;7.016;2023-05-09T14:22:40;19.80;80.00
71837;DHT22;59686;51.716;7.016;2023-05-09T14:25:06;19.70;80.50
71837;DHT22;59686;51.716;7.016;2023-05-09T14:27:32;19.70;80.80
71837;DHT22;59686;51.716;7.016;2023-05-09T14:30:04;19.70;81.60
71837;DHT22;59686;51.716;7.016;2023-05-09T14:32:30;19.70;81.00
71837;DHT22;59686;51.716;7.016;2023-05-09T14:34:55;19.70;81.40
71837;DHT22;59686;51.716;7.016;2023-05-09T14:37:21;19.70;81.30
71837;DHT22;59686;51.716;7.016;2023-05-09T14:39:46;19.70;81.00
71837;DHT22;59686;51.716;7.016;2023-05-09T14:42:14;19.70;81.00
71837;DHT22;59686;51.716;7.016;2023-05-09T14:44:41;19.70;81.10
71837;DHT22;59686;51.716;7.016;2023-05-09T14:47:07;19.70;81.60
71837;DHT22;59686;51.716;7.016;2023-05-09T14:49:33;19.70;81.60
71837;DHT22;59686;51.716;7.016;2023-05-09T14:51:59;19.70;81.40
71837;DHT22;59686;51.716;7.016;2023-05-09T14:54:25;19.70;81.60
71837;DHT22;59686;51.716;7.016;2023-05-09T14:56:54;19.70;81.50
71837;DHT22;59686;51.716;7.016;2023-05-09T14:59:19;19.80;81.40
71837;DHT22;59686;51.716;7.016;2023-05-09T15:01:45;19.80;81.60
71837;DHT22;59686;51.716;7.016;2023-05-09T15:04:11;19.80;81.60
71837;DHT22;59686;51.716;7.016;2023-05-09T15:06:37;19.80;81.90
71837;DHT22;59686;51.716;7.016;2023-05-09T15:09:03;19.80;81.70
71837;DHT22;59686;51.716;7.016;2023-05-09T15:11:28;19.80;81.80
71837;DHT22;59686;51.716;7.016;2023-05-09T15:13:55;19.80;81.70
71837;DHT22;59686;51.716;7.016;2023-05-09T15:16:20;19.80;81.90
71837;DHT22;59686;51.716;7.016;2023-05-09T15:18:46;19.80;82.20
71837;DHT22;59686;51.716;7.016;2023-05-09T15:21:12;19.80;82.10
71837;DHT22;59686;51.716;7.016;2023-05-09T15:23:38;19.80;82.10
71837;DHT22;59686;51.716;7.016;2023-05-09T15:26:05;19.80;82.10
71837;DHT22;59686;51.716;7.016;2023-05-09T15:28:37;19.80;82.10
71837;DHT22;59686;51.716;7.016;2023-05-09T15:31:03;19.80;82.10
71837;DHT22;59686;51.716;7.016;2023-05-09T15:33:28;19.80;82.10
71837;DHT22;59686;51.716;7.016;2023-05-09T15:35:56;19.80;82.30
71837;DHT22;59686;51.716;7.016;2023-05-09T15:38:23;19.80;82.40
71837;DHT22;59686;51.716;7.016;2023-05-09T15:40:49;19.80;82.60
71837;DHT22;59686;51.716;7.016;2023-05-09T15:43:14;19.80;82.60
71837;DHT22;59686;51.716;7.016;2023-05-09T15:45:40;19.80;82.70
71837;DHT22;59686;51.716;7.016;2023-05-09T15:48:14;19.80;82.70
71837;DHT22;59686;51.716;7.016;2023-05-09T15:50:41;19.80;82.80
71837;DHT22;59686;51.716;7.016;2023-05-09T15:53:07;19.80;82.90
71837;DHT22;59686;51.716;7.016;2023-05-09T15:55:33;19.80;83.00
71837;DHT22;59686;51.716;7.016;2023-05-09T15:58:00;19.80;82.90
71837;DHT22;59686;51.716;7.016;2023-05-09T16:00:27;19.80;83.00
71837;DHT22;59686;51.716;7.016;2023-05-09T16:02:55;19.80;83.20
71837;DHT22;59686;51.716;7.016;2023-05-09T16:05:23;19.80;83.20
71837;DHT22;59686;51.716;7.016;2023-05-09T16:08:01;19.80;83.40
71837;DHT22;59686;51.716;7.016;2023-05-09T16:10:26;19.80;83.50
71837;DHT22;59686;51.716;7.016;2023-05-09T16:12:52;19.80;83.50
71837;DHT22;59686;51.716;7.016;2023-05-09T16:15:18;19.80;83.70
71837;DHT22;59686;51.716;7.016;2023-05-09T16:17:47;19.80;83.80
71837;DHT22;59686;51.716;7.016;2023-05-09T16:20:16;19.80;83.90
71837;DHT22;59686;51.716;7.016;2023-05-09T16:22:41;19.80;83.90
71837;DHT22;59686;51.716;7.016;2023-05-09T16:25:07;19.80;84.10
71837;DHT22;59686;51.716;7.016;2023-05-09T16:27:33;19.80;84.10
71837;DHT22;59686;51.716;7.016;2023-05-09T16:29:59;19.80;84.20
71837;DHT22;59686;51.716;7.016;2023-05-09T16:32:24;19.80;84.20
71837;DHT22;59686;51.716;7.016;2023-05-09T16:34:50;19.80;84.20
71837;DHT22;59686;51.716;7.016;2023-05-09T16:37:16;19.90;85.00
71837;DHT22;59686;51.716;7.016;2023-05-09T16:39:43;19.80;84.20
71837;DHT22;59686;51.716;7.016;2023-05-09T16:42:09;19.80;84.20
71837;DHT22;59686;51.716;7.016;2023-05-09T16:44:37;19.80;84.30